createdAt,value
2023-05-12T05:01:12.812Z,36.98
2023-05-12T05:02:12.847Z,36.01
2023-05-12T05:03:12.869Z,35.86
2023-05-12T05:04:12.881Z,35.73
2023-05-12T05:05:12.963Z,35.66
2023-05-12T05:06:12.940Z,35.64
2023-05-12T05:07:12.993Z,35.62
2023-05-12T05:08:13.010Z,35.44
2023-05-12T05:09:13.052Z,35.55
2023-05-12T05:10:13.109Z,35.41
2023-05-12T05:11:13.090Z,35.45
2023-05-12T05:12:13.059Z,35.34
2023-05-12T05:13:13.076Z,35.31
2023-05-12T05:14:13.084Z,35.32
2023-05-12T05:15:13.096Z,35.22
2023-05-12T05:16:13.107Z,35.22
2023-05-12T05:17:13.133Z,35.28
2023-05-12T05:18:13.166Z,35.20
2023-05-12T05:19:20.626Z,35.04
2023-05-12T05:20:15.455Z,35.04
2023-05-12T05:21:13.252Z,35.08
2023-05-12T05:22:13.180Z,35.15
2023-05-12T05:23:13.206Z,35.27
2023-05-12T05:24:13.198Z,35.49
2023-05-12T05:25:13.198Z,35.63
2023-05-12T05:26:13.207Z,35.62
2023-05-12T05:27:13.245Z,35.66
2023-05-12T05:28:13.295Z,35.65
2023-05-12T05:29:13.273Z,35.68
2023-05-12T05:30:13.311Z,35.70
2023-05-12T05:31:14.172Z,35.70
2023-05-12T05:32:13.347Z,35.62
2023-05-12T05:33:13.441Z,35.64
2023-05-12T05:34:13.538Z,35.59
2023-05-12T05:35:13.520Z,35.57
2023-05-12T05:36:13.515Z,35.56
2023-05-12T05:37:13.569Z,35.43
2023-05-12T05:38:13.635Z,35.41
2023-05-12T05:39:13.664Z,35.39
2023-05-12T05:40:13.708Z,35.39
2023-05-12T05:41:13.798Z,35.49
2023-05-12T05:42:13.810Z,35.40
2023-05-12T05:43:14.089Z,35.45
2023-05-12T05:44:13.929Z,35.44
2023-05-12T05:45:13.968Z,35.40
2023-05-12T05:46:14.211Z,35.32
2023-05-12T05:47:14.062Z,35.72
2023-05-12T05:48:14.034Z,35.34
2023-05-12T05:49:13.995Z,35.26
2023-05-12T05:50:13.954Z,35.19
2023-05-12T05:51:13.974Z,35.07
2023-05-12T05:52:13.958Z,35.02
2023-05-12T05:53:13.958Z,34.96
2023-05-12T05:54:14.015Z,34.98
2023-05-12T05:55:14.000Z,35.18
2023-05-12T05:56:14.102Z,35.30
2023-05-12T05:57:14.157Z,35.32
2023-05-12T05:58:14.157Z,35.24
2023-05-12T05:59:14.274Z,35.11
2023-05-12T06:00:14.248Z,35.14
2023-05-12T06:01:14.305Z,35.10
2023-05-12T06:02:14.306Z,34.28
2023-05-12T06:03:14.447Z,34.02
2023-05-12T06:04:14.400Z,34.34
2023-05-12T06:05:14.657Z,34.71
2023-05-12T06:06:14.405Z,34.89
2023-05-12T06:07:14.442Z,34.67
2023-05-12T06:08:14.397Z,34.61
2023-05-12T06:09:14.433Z,34.69
2023-05-12T06:10:14.440Z,34.52
2023-05-12T06:11:15.359Z,34.32
2023-05-12T06:12:14.432Z,34.53
2023-05-12T06:13:14.448Z,34.52
2023-05-12T06:14:14.513Z,34.60
2023-05-12T06:15:14.533Z,34.55
2023-05-12T06:16:14.551Z,34.74
2023-05-12T06:17:14.573Z,34.42
2023-05-12T06:18:14.587Z,34.35
2023-05-12T06:19:14.607Z,34.34
2023-05-12T06:20:14.595Z,34.41
2023-05-12T06:21:14.626Z,34.58
2023-05-12T06:22:14.639Z,34.49
2023-05-12T06:23:14.679Z,34.88
2023-05-12T06:24:14.712Z,35.10
2023-05-12T06:25:14.764Z,35.21
2023-05-12T06:26:14.708Z,35.02
2023-05-12T06:27:14.742Z,34.62
2023-05-12T06:28:14.700Z,34.54
2023-05-12T06:29:14.752Z,34.33
2023-05-12T06:30:16.097Z,34.47
2023-05-12T06:31:14.812Z,34.68
2023-05-12T06:32:14.832Z,34.81
2023-05-12T06:33:14.855Z,34.88
2023-05-12T06:34:14.875Z,34.83
2023-05-12T06:35:14.958Z,35.10
2023-05-12T06:36:14.933Z,35.16
2023-05-12T06:37:14.962Z,35.19
2023-05-12T06:38:14.964Z,35.15
2023-05-12T06:39:14.994Z,35.24
2023-05-12T06:40:15.053Z,35.36
2023-05-12T06:41:15.332Z,35.38
2023-05-12T06:42:15.143Z,35.14
2023-05-12T06:43:15.083Z,35.37
2023-05-12T06:44:15.090Z,35.44
2023-05-12T06:45:15.155Z,35.20
2023-05-12T06:46:15.200Z,35.71
2023-05-12T06:47:15.205Z,35.33
2023-05-12T06:48:15.386Z,35.30
2023-05-12T06:49:15.236Z,35.34
2023-05-12T06:50:16.240Z,35.45
2023-05-12T06:51:16.732Z,35.16
2023-05-12T06:52:15.487Z,35.05
2023-05-12T06:53:15.540Z,34.98
2023-05-12T06:54:15.419Z,35.00
2023-05-12T06:55:15.613Z,35.17
2023-05-12T06:56:15.534Z,35.59
2023-05-12T06:57:15.411Z,35.78
2023-05-12T06:58:16.611Z,35.78
2023-05-12T06:59:16.017Z,35.86
2023-05-12T07:00:15.465Z,35.85
2023-05-12T07:01:15.504Z,35.95
2023-05-12T07:02:15.460Z,35.91
2023-05-12T07:03:15.681Z,35.85
2023-05-12T07:04:15.618Z,35.89
2023-05-12T07:05:15.526Z,35.76
2023-05-12T07:06:15.619Z,35.77
2023-05-12T07:07:15.607Z,35.60
2023-05-12T07:08:15.651Z,35.60
2023-05-12T07:09:15.692Z,35.60
2023-05-12T07:10:15.748Z,35.32
2023-05-12T07:11:15.708Z,35.26
2023-05-12T07:12:15.842Z,35.21
2023-05-12T07:13:15.882Z,35.26
2023-05-12T07:14:15.910Z,35.20
2023-05-12T07:15:15.924Z,35.19
2023-05-12T07:16:16.026Z,35.25
2023-05-12T07:17:16.050Z,35.14
2023-05-12T07:18:16.064Z,35.13
2023-05-12T07:19:16.156Z,35.29
2023-05-12T07:20:16.132Z,35.24
2023-05-12T07:21:16.188Z,35.19
2023-05-12T07:22:16.203Z,35.28
2023-05-12T07:23:16.936Z,35.47
2023-05-12T07:24:16.206Z,35.29
2023-05-12T07:25:16.288Z,35.33
2023-05-12T07:26:16.189Z,35.42
2023-05-12T07:27:17.161Z,35.60
2023-05-12T07:28:16.251Z,35.59
2023-05-12T07:29:16.254Z,35.69
2023-05-12T07:30:16.386Z,35.45
2023-05-12T07:31:17.103Z,35.53
2023-05-12T07:32:16.353Z,35.30
2023-05-12T07:33:16.365Z,35.40
2023-05-12T07:34:16.363Z,35.40
2023-05-12T07:35:16.344Z,35.41
2023-05-12T07:36:16.548Z,35.56
2023-05-12T07:37:16.438Z,35.27
2023-05-12T07:38:16.465Z,35.38
2023-05-12T07:39:16.524Z,35.26
2023-05-12T07:40:16.538Z,35.11
2023-05-12T07:41:16.652Z,35.30
2023-05-12T07:42:16.605Z,35.23
2023-05-12T07:43:16.673Z,34.96
2023-05-12T07:44:16.680Z,35.05
2023-05-12T07:45:16.787Z,35.21
2023-05-12T07:46:16.787Z,35.19
2023-05-12T07:47:17.019Z,35.19
2023-05-12T07:48:16.930Z,35.21
2023-05-12T07:49:16.962Z,35.23
2023-05-12T07:50:16.968Z,35.32
2023-05-12T07:51:17.062Z,35.35
2023-05-12T07:52:17.071Z,35.43
2023-05-12T07:53:17.088Z,35.49
2023-05-12T07:54:17.167Z,35.61
2023-05-12T07:55:17.299Z,35.73
2023-05-12T07:56:17.196Z,35.71
2023-05-12T07:57:17.229Z,35.62
2023-05-12T07:58:17.251Z,35.59
2023-05-12T07:59:17.266Z,35.56
2023-05-12T08:00:17.353Z,35.48
2023-05-12T08:01:17.309Z,35.48
2023-05-12T08:02:17.452Z,35.44
2023-05-12T08:03:17.426Z,35.54
2023-05-12T08:04:17.465Z,35.47
2023-05-12T08:05:17.441Z,35.43
2023-05-12T08:06:17.425Z,35.24
2023-05-12T08:07:17.488Z,34.83
2023-05-12T08:08:17.510Z,34.65
2023-05-12T08:09:17.536Z,34.44
2023-05-12T08:10:17.618Z,34.04
2023-05-12T08:11:17.572Z,33.95
2023-05-12T08:12:17.647Z,34.00
2023-05-12T08:13:17.700Z,34.08
2023-05-12T08:14:17.722Z,34.11
2023-05-12T08:15:18.066Z,34.14
2023-05-12T08:16:17.831Z,34.11
2023-05-12T08:17:17.845Z,34.11
2023-05-12T08:18:17.941Z,33.96
2023-05-12T08:19:17.922Z,33.92
2023-05-12T08:20:17.974Z,33.98
2023-05-12T08:21:17.993Z,33.84
2023-05-12T08:22:18.078Z,33.84
2023-05-12T08:23:18.117Z,33.98
2023-05-12T08:24:18.171Z,34.15
2023-05-12T08:25:18.305Z,34.14
2023-05-12T08:26:18.254Z,34.05
2023-05-12T08:27:18.322Z,34.04
2023-05-12T08:28:18.389Z,34.08
2023-05-12T08:29:18.445Z,34.35
2023-05-12T08:30:18.428Z,34.31
2023-05-12T08:31:18.536Z,33.98
2023-05-12T08:32:18.513Z,33.84
2023-05-12T08:33:18.605Z,33.70
2023-05-12T08:34:18.620Z,33.85
2023-05-12T08:35:18.928Z,33.90
2023-05-12T08:36:18.721Z,34.01
2023-05-12T08:37:18.693Z,34.08
2023-05-12T08:38:18.730Z,34.08
2023-05-12T08:39:18.819Z,34.00
2023-05-12T08:40:19.721Z,33.96
2023-05-12T08:41:18.849Z,34.08
2023-05-12T08:42:18.925Z,34.12
2023-05-12T08:43:18.926Z,34.16
2023-05-12T08:44:18.977Z,34.18
2023-05-12T08:45:19.283Z,34.19
2023-05-12T08:46:19.141Z,34.21
2023-05-12T08:47:19.086Z,34.16
2023-05-12T08:48:19.153Z,34.19
2023-05-12T08:49:19.163Z,34.21
2023-05-12T08:50:19.206Z,34.32
2023-05-12T08:51:19.245Z,34.33
2023-05-12T08:52:19.302Z,34.35
2023-05-12T08:53:19.321Z,34.36
2023-05-12T08:54:19.320Z,34.63
2023-05-12T08:55:19.620Z,34.66
2023-05-12T08:57:19.456Z,34.16
2023-05-12T08:58:25.285Z,34.17
2023-05-12T08:59:20.397Z,34.04
2023-05-12T09:00:19.734Z,34.22
2023-05-12T09:01:19.523Z,33.89
2023-05-12T09:02:19.472Z,34.16
2023-05-12T09:03:19.357Z,33.98
2023-05-12T09:04:19.400Z,33.99
2023-05-12T09:05:19.643Z,33.88
2023-05-12T09:06:19.314Z,34.03
2023-05-12T09:07:19.344Z,33.86
2023-05-12T09:08:19.345Z,33.89
2023-05-12T09:09:19.414Z,33.83
2023-05-12T09:10:29.819Z,33.94
2023-05-12T09:11:20.382Z,34.03
2023-05-12T09:12:19.381Z,33.91
2023-05-12T09:13:19.394Z,33.96
2023-05-12T09:14:19.386Z,34.02
2023-05-12T09:15:19.471Z,34.00
2023-05-12T09:16:19.361Z,34.14
2023-05-12T09:17:19.418Z,34.05
2023-05-12T09:18:19.314Z,34.14
2023-05-12T09:19:19.357Z,34.02
2023-05-12T09:20:30.377Z,33.98
2023-05-12T09:21:20.333Z,34.14
2023-05-12T09:22:19.308Z,34.33
2023-05-12T09:23:19.352Z,34.36
2023-05-12T09:24:19.275Z,34.47
2023-05-12T09:25:19.559Z,34.67
2023-05-12T09:26:19.294Z,34.85
2023-05-12T09:27:19.274Z,34.74
2023-05-12T09:28:19.337Z,34.42
2023-05-12T09:29:30.784Z,34.34
2023-05-12T09:30:20.266Z,34.36
2023-05-12T09:31:19.372Z,34.31
2023-05-12T09:32:19.223Z,34.51
2023-05-12T09:33:19.547Z,34.43
2023-05-12T09:34:19.234Z,34.46
2023-05-12T09:35:19.413Z,34.33
2023-05-12T09:36:19.218Z,34.80
2023-05-12T09:37:19.324Z,34.79
2023-05-12T09:38:19.186Z,34.51
2023-05-12T09:39:19.224Z,34.75
2023-05-12T09:40:19.207Z,34.91
2023-05-12T09:41:19.266Z,34.96
2023-05-12T09:42:19.333Z,35.00
2023-05-12T09:43:19.351Z,34.94
2023-05-12T09:44:19.433Z,35.11
2023-05-12T09:45:19.774Z,35.18
2023-05-12T09:46:19.553Z,35.09
2023-05-12T09:47:19.579Z,34.84
2023-05-12T09:48:19.662Z,34.85
2023-05-12T09:49:19.759Z,35.09
2023-05-12T09:50:19.749Z,35.47
2023-05-12T09:51:19.786Z,35.61
2023-05-12T09:52:19.786Z,35.59
2023-05-12T09:53:19.836Z,35.77
2023-05-12T09:54:19.848Z,35.73
2023-05-12T09:55:20.140Z,35.64
2023-05-12T09:56:19.965Z,35.43
2023-05-12T09:57:20.015Z,35.29
2023-05-12T09:58:20.133Z,35.19
2023-05-12T09:59:20.014Z,35.18
2023-05-12T10:00:33.239Z,35.19
2023-05-12T10:01:23.344Z,35.29
2023-05-12T10:02:20.012Z,35.20
2023-05-12T10:03:20.019Z,35.22
2023-05-12T10:04:20.001Z,35.18
2023-05-12T10:05:20.580Z,35.26
2023-05-12T10:06:19.976Z,35.34
2023-05-12T10:07:19.989Z,35.46
2023-05-12T10:08:19.961Z,35.42
2023-05-12T10:09:19.953Z,35.49
2023-05-12T10:10:19.979Z,35.53
2023-05-12T10:11:19.939Z,35.50
2023-05-12T10:12:19.939Z,35.43
2023-05-12T10:13:20.679Z,35.34
2023-05-12T10:14:19.945Z,35.28
2023-05-12T10:15:20.173Z,35.19
2023-05-12T10:16:19.962Z,35.16
2023-05-12T10:17:19.948Z,35.16
2023-05-12T10:18:19.901Z,35.17
2023-05-12T10:19:19.854Z,35.10
2023-05-12T10:20:19.914Z,35.09
2023-05-12T10:21:19.883Z,35.11
2023-05-12T10:22:19.852Z,35.02
2023-05-12T10:23:19.856Z,34.99
2023-05-12T10:24:19.850Z,35.00
2023-05-12T10:25:20.294Z,34.98
2023-05-12T10:26:19.831Z,34.98
2023-05-12T10:27:19.862Z,34.98
2023-05-12T10:28:19.842Z,35.05
2023-05-12T10:29:19.803Z,35.08
2023-05-12T10:30:19.804Z,35.08
2023-05-12T10:31:19.858Z,35.56
2023-05-12T10:32:19.815Z,35.41
2023-05-12T10:33:19.834Z,35.42
2023-05-12T10:34:19.809Z,35.40
2023-05-12T10:35:19.975Z,35.29
2023-05-12T10:36:19.824Z,35.16
2023-05-12T10:37:19.775Z,35.13
2023-05-12T10:38:19.772Z,35.14
2023-05-12T10:39:19.708Z,35.14
2023-05-12T10:40:19.746Z,35.31
2023-05-12T10:41:19.709Z,35.17
2023-05-12T10:42:19.729Z,35.09
2023-05-12T10:43:19.789Z,35.23
2023-05-12T10:44:19.791Z,35.43
2023-05-12T10:45:20.093Z,35.34
2023-05-12T10:46:19.869Z,35.23
2023-05-12T10:47:19.887Z,35.08
2023-05-12T10:48:19.948Z,34.89
2023-05-12T10:49:19.970Z,34.92
2023-05-12T10:50:20.009Z,35.18
2023-05-12T10:51:20.078Z,35.33
2023-05-12T10:52:20.115Z,34.95
2023-05-12T10:53:20.225Z,34.85
2023-05-12T10:54:20.267Z,34.71
2023-05-12T10:55:20.428Z,34.80
2023-05-12T10:56:20.606Z,34.87
2023-05-12T10:57:20.648Z,34.70
2023-05-12T10:58:20.957Z,34.57
2023-05-12T10:59:20.870Z,34.53
2023-05-12T11:00:20.781Z,34.61
2023-05-12T11:01:21.124Z,34.69
2023-05-12T11:02:20.978Z,34.63
2023-05-12T11:03:21.935Z,34.65
2023-05-12T11:04:20.842Z,34.74
2023-05-12T11:05:22.215Z,34.63
2023-05-12T11:06:21.319Z,34.48
2023-05-12T11:07:22.036Z,34.42
2023-05-12T11:08:21.615Z,34.39
2023-05-12T11:09:21.609Z,34.37
2023-05-12T11:10:21.937Z,34.27
2023-05-12T11:11:22.369Z,34.16
2023-05-12T11:12:21.061Z,34.12
2023-05-12T11:13:21.139Z,34.27
2023-05-12T11:14:21.171Z,34.11
2023-05-12T11:15:21.344Z,33.82
2023-05-12T11:16:21.291Z,33.93
2023-05-12T11:17:21.299Z,33.32
2023-05-12T11:18:21.378Z,33.18
2023-05-12T11:19:21.354Z,33.17
2023-05-12T11:20:21.390Z,33.17
2023-05-12T11:21:21.450Z,33.16
2023-05-12T11:22:21.551Z,33.05
2023-05-12T11:23:21.529Z,33.05
2023-05-12T11:24:21.589Z,33.22
2023-05-12T11:25:21.961Z,33.57
2023-05-12T11:26:21.698Z,33.59
2023-05-12T11:27:21.732Z,33.63
2023-05-12T11:28:21.781Z,33.47
2023-05-12T11:29:21.814Z,33.47
2023-05-12T11:30:21.871Z,33.45
2023-05-12T11:31:21.948Z,33.41
2023-05-12T11:32:21.998Z,33.39
2023-05-12T11:33:21.964Z,33.42
2023-05-12T11:34:22.063Z,33.42
2023-05-12T11:35:22.317Z,33.34
2023-05-12T11:36:22.122Z,33.21
2023-05-12T11:37:22.171Z,33.21
2023-05-12T11:38:22.185Z,33.09
2023-05-12T11:39:22.237Z,33.26
2023-05-12T11:40:22.405Z,33.11
2023-05-12T11:41:22.432Z,33.03
2023-05-12T11:42:24.410Z,33.01
2023-05-12T11:43:22.379Z,32.86
2023-05-12T11:44:22.398Z,32.92
2023-05-12T11:45:22.706Z,32.98
2023-05-12T11:46:22.451Z,32.93
2023-05-12T11:47:22.360Z,32.88
2023-05-12T11:48:22.305Z,32.90
2023-05-12T11:49:22.340Z,32.87
2023-05-12T11:50:22.327Z,32.68
2023-05-12T11:51:22.308Z,32.59
2023-05-12T11:52:22.317Z,32.47
2023-05-12T11:53:22.281Z,32.50
2023-05-12T11:54:22.310Z,32.44
2023-05-12T11:55:22.404Z,32.40
2023-05-12T11:56:22.265Z,32.32
2023-05-12T11:57:22.258Z,32.31
2023-05-12T11:58:22.224Z,32.17
2023-05-12T11:59:22.261Z,32.25
2023-05-12T12:00:22.250Z,32.00
2023-05-12T12:01:22.250Z,32.08
2023-05-12T12:02:22.249Z,31.99
2023-05-12T12:03:22.412Z,32.21
2023-05-12T12:04:22.300Z,32.09
2023-05-12T12:05:22.484Z,32.10
2023-05-12T12:06:22.297Z,32.05
2023-05-12T12:07:22.183Z,32.16
2023-05-12T12:08:22.185Z,32.17
2023-05-12T12:09:22.160Z,32.06
2023-05-12T12:10:22.168Z,32.07
2023-05-12T12:11:22.146Z,31.96
2023-05-12T12:12:22.154Z,31.69
2023-05-12T12:13:22.170Z,31.83
2023-05-12T12:14:22.114Z,31.62
2023-05-12T12:15:22.216Z,31.59
2023-05-12T12:16:22.243Z,31.41
2023-05-12T12:17:22.152Z,31.55
2023-05-12T12:18:22.233Z,31.41
2023-05-12T12:19:22.117Z,31.47
2023-05-12T12:20:22.173Z,31.52
2023-05-12T12:21:22.139Z,31.65
2023-05-12T12:22:22.099Z,31.56
2023-05-12T12:23:22.176Z,31.62
2023-05-12T12:24:22.233Z,31.55
2023-05-12T12:25:22.377Z,31.60
2023-05-12T12:26:22.327Z,31.61
2023-05-12T12:27:22.319Z,31.63
2023-05-12T12:28:22.360Z,31.51
2023-05-12T12:29:22.392Z,31.61
2023-05-12T12:30:22.436Z,31.48
2023-05-12T12:31:22.515Z,31.51
2023-05-12T12:32:22.500Z,31.29
2023-05-12T12:33:22.589Z,31.27
2023-05-12T12:34:22.659Z,31.19
2023-05-12T12:35:22.885Z,31.07
2023-05-12T12:36:22.698Z,31.09
2023-05-12T12:37:22.734Z,30.95
2023-05-12T12:38:22.771Z,30.92
2023-05-12T12:39:22.805Z,31.04
2023-05-12T12:40:22.829Z,30.80
2023-05-12T12:41:23.079Z,30.78
2023-05-12T12:42:22.902Z,30.84
2023-05-12T12:43:22.960Z,30.77
2023-05-12T12:44:23.072Z,30.95
2023-05-12T12:45:23.258Z,30.91
2023-05-12T12:46:23.189Z,30.95
2023-05-12T12:47:23.196Z,31.10
2023-05-12T12:48:23.232Z,31.16
2023-05-12T12:49:23.256Z,30.98
2023-05-12T12:50:25.060Z,31.17
2023-05-12T12:51:24.320Z,31.19
2023-05-12T12:52:23.388Z,31.17
2023-05-12T12:53:23.493Z,30.94
2023-05-12T12:54:23.492Z,30.94
2023-05-12T12:55:23.679Z,30.92
2023-05-12T12:56:25.403Z,30.93
2023-05-12T12:57:23.579Z,30.69
2023-05-12T12:58:23.651Z,30.63
2023-05-12T12:59:23.702Z,30.54
2023-05-12T13:00:23.790Z,30.58
2023-05-12T13:01:23.879Z,30.56
2023-05-12T13:02:23.873Z,30.41
2023-05-12T13:03:23.915Z,30.46
2023-05-12T13:04:23.851Z,30.48
2023-05-12T13:05:23.984Z,30.67
2023-05-12T13:06:23.948Z,30.83
2023-05-12T13:07:24.013Z,30.73
2023-05-12T13:08:24.017Z,30.60
2023-05-12T13:09:24.050Z,30.77
2023-05-12T13:10:24.095Z,30.77
2023-05-12T13:11:24.122Z,30.80
2023-05-12T13:12:24.209Z,30.78
2023-05-12T13:13:24.215Z,30.74
2023-05-12T13:14:24.278Z,30.71
2023-05-12T13:15:24.515Z,30.68
2023-05-12T13:16:24.383Z,30.76
2023-05-12T13:17:24.398Z,30.77
2023-05-12T13:18:24.451Z,30.69
2023-05-12T13:19:24.456Z,30.60
2023-05-12T13:20:24.539Z,30.60
2023-05-12T13:21:24.568Z,30.65
2023-05-12T13:22:24.637Z,30.64
2023-05-12T13:23:24.660Z,30.91
2023-05-12T13:24:24.678Z,30.94
2023-05-12T13:25:24.746Z,31.17
2023-05-12T13:26:24.767Z,31.12
2023-05-12T13:27:24.814Z,31.23
2023-05-12T13:28:24.909Z,31.20
2023-05-12T13:29:24.952Z,30.98
2023-05-12T13:30:25.100Z,30.89
2023-05-12T13:31:25.109Z,31.04
2023-05-12T13:32:25.084Z,31.03
2023-05-12T13:33:25.169Z,30.86
2023-05-12T13:34:25.168Z,30.84
2023-05-12T13:35:25.190Z,30.77
2023-05-12T13:36:25.255Z,30.68
2023-05-12T13:37:25.347Z,30.65
2023-05-12T13:38:25.359Z,30.77
2023-05-12T13:39:25.403Z,30.78
2023-05-12T13:40:25.503Z,30.65
2023-05-12T13:41:25.551Z,30.57
2023-05-12T13:42:25.576Z,30.50
2023-05-12T13:43:25.653Z,30.77
2023-05-12T13:44:25.686Z,30.69
2023-05-12T13:45:25.871Z,30.63
2023-05-12T13:46:25.885Z,30.55
2023-05-12T13:47:25.864Z,30.55
2023-05-12T13:48:25.900Z,30.36
2023-05-12T13:49:25.981Z,30.48
2023-05-12T13:50:26.038Z,30.45
2023-05-12T13:51:26.023Z,30.35
2023-05-12T13:52:26.095Z,30.44
2023-05-12T13:53:26.142Z,30.54
2023-05-12T13:54:26.236Z,30.76
2023-05-12T13:55:26.506Z,30.85
2023-05-12T13:56:26.294Z,30.82
2023-05-12T13:57:26.283Z,30.88
2023-05-12T13:58:26.335Z,30.91
2023-05-12T13:59:26.394Z,30.99
2023-05-12T14:00:26.395Z,31.03
2023-05-12T14:01:26.566Z,31.06
2023-05-12T14:02:26.581Z,31.07
2023-05-12T14:03:26.660Z,31.17
2023-05-12T14:04:26.659Z,31.10
2023-05-12T14:05:26.781Z,31.04
2023-05-12T14:06:26.835Z,31.08
2023-05-12T14:07:26.842Z,31.10
2023-05-12T14:08:26.841Z,30.98
2023-05-12T14:09:26.927Z,30.94
2023-05-12T14:10:26.983Z,31.03
2023-05-12T14:11:26.997Z,31.01
2023-05-12T14:12:27.050Z,31.01
2023-05-12T14:13:27.076Z,30.95
2023-05-12T14:14:27.138Z,31.06
2023-05-12T14:15:40.086Z,31.10
2023-05-12T14:16:28.249Z,31.06
2023-05-12T14:17:27.160Z,30.95
2023-05-12T14:18:27.248Z,31.10
2023-05-12T14:19:27.142Z,31.11
2023-05-12T14:20:27.131Z,31.04
2023-05-12T14:21:27.125Z,31.07
2023-05-12T14:22:27.179Z,31.23
2023-05-12T14:23:27.137Z,31.34
2023-05-12T14:24:27.140Z,31.24
2023-05-12T14:25:27.190Z,31.25
2023-05-12T14:26:27.116Z,31.25
2023-05-12T14:27:27.207Z,31.24
2023-05-12T14:28:27.219Z,31.29
2023-05-12T14:29:27.295Z,31.32
2023-05-12T14:30:27.435Z,31.40
2023-05-12T14:31:27.460Z,31.46
2023-05-12T14:32:27.472Z,31.40
2023-05-12T14:33:27.529Z,31.41
2023-05-12T14:34:27.553Z,31.41
2023-05-12T14:35:27.937Z,31.39
2023-05-12T14:36:27.657Z,31.37
2023-05-12T14:37:27.683Z,31.35
2023-05-12T14:38:27.719Z,31.33
2023-05-12T14:39:27.803Z,31.43
2023-05-12T14:40:27.827Z,31.49
2023-05-12T14:41:27.909Z,31.50
2023-05-12T14:42:27.975Z,31.47
2023-05-12T14:43:27.974Z,31.61
2023-05-12T14:44:28.037Z,31.75
2023-05-12T14:45:28.121Z,31.77
2023-05-12T14:46:28.168Z,31.78
2023-05-12T14:47:28.221Z,31.74
2023-05-12T14:48:28.293Z,31.71
2023-05-12T14:49:28.384Z,31.65
2023-05-12T14:50:28.391Z,31.63
2023-05-12T14:51:28.433Z,31.76
2023-05-12T14:52:28.532Z,31.76
2023-05-12T14:53:28.662Z,31.71
2023-05-12T14:54:28.598Z,31.70
2023-05-12T14:55:28.648Z,31.74
2023-05-12T14:56:28.725Z,31.94
2023-05-12T14:57:28.732Z,32.05
2023-05-12T14:58:28.820Z,32.10
2023-05-12T14:59:28.867Z,32.20
2023-05-12T15:00:28.930Z,32.22
2023-05-12T15:01:29.061Z,32.21
2023-05-12T15:02:29.060Z,32.44
2023-05-12T15:03:29.162Z,32.72
2023-05-12T15:04:29.104Z,32.64
2023-05-12T15:05:41.177Z,32.47
2023-05-12T15:06:30.165Z,32.46
2023-05-12T15:07:29.184Z,32.34
2023-05-12T15:08:29.177Z,32.27
2023-05-12T15:09:29.250Z,32.38
2023-05-12T15:10:29.157Z,32.23
2023-05-12T15:11:29.148Z,32.24
2023-05-12T15:12:29.165Z,32.21
2023-05-12T15:13:29.129Z,32.20
2023-05-12T15:14:29.142Z,32.29
2023-05-12T15:15:29.113Z,32.27
2023-05-12T15:16:29.099Z,32.25
2023-05-12T15:17:29.132Z,32.13
2023-05-12T15:18:29.175Z,32.14
2023-05-12T15:19:29.147Z,32.12
2023-05-12T15:20:29.191Z,32.15
2023-05-12T15:21:29.218Z,32.20
2023-05-12T15:22:29.266Z,32.29
2023-05-12T15:23:29.263Z,32.47
2023-05-12T15:24:29.266Z,32.46
2023-05-12T15:25:29.310Z,32.40
2023-05-12T15:26:33.616Z,32.39
2023-05-12T15:27:30.349Z,32.61
2023-05-12T15:28:29.316Z,32.63
2023-05-12T15:29:29.396Z,32.49
2023-05-12T15:30:29.319Z,32.48
2023-05-12T15:31:29.463Z,32.46
2023-05-12T15:32:29.324Z,32.47
2023-05-12T15:33:30.454Z,32.48
2023-05-12T15:34:29.284Z,32.47
2023-05-12T15:35:29.237Z,32.49
2023-05-12T15:36:29.271Z,32.49
2023-05-12T15:37:29.251Z,32.49
2023-05-12T15:38:29.224Z,32.51
2023-05-12T15:39:29.230Z,32.50
2023-05-12T15:40:29.226Z,32.50
2023-05-12T15:41:29.359Z,32.54
2023-05-12T15:42:32.987Z,32.62
2023-05-12T15:43:29.219Z,32.72
2023-05-12T15:44:29.238Z,32.70
2023-05-12T15:45:29.242Z,32.68
2023-05-12T15:46:29.337Z,32.67
2023-05-12T15:47:29.227Z,32.68
2023-05-12T15:48:29.194Z,32.67
2023-05-12T15:49:29.218Z,32.68
2023-05-12T15:50:29.217Z,32.68
2023-05-12T15:51:29.164Z,32.68
2023-05-12T15:52:29.179Z,32.67
2023-05-12T15:53:29.180Z,32.69
2023-05-12T15:54:29.173Z,32.68
2023-05-12T15:55:29.164Z,32.69
2023-05-12T15:56:29.150Z,32.71
2023-05-12T15:57:29.173Z,32.71
2023-05-12T15:58:29.162Z,32.71
2023-05-12T15:59:29.132Z,32.74
2023-05-12T16:00:29.150Z,32.75
2023-05-12T16:01:29.152Z,32.75
2023-05-12T16:02:29.170Z,32.75
2023-05-12T16:03:29.240Z,32.76
2023-05-12T16:04:29.090Z,32.78
2023-05-12T16:05:29.083Z,32.79
2023-05-12T16:06:29.286Z,32.80
2023-05-12T16:07:29.087Z,32.81
2023-05-12T16:08:29.072Z,32.79
2023-05-12T16:09:29.069Z,32.80
2023-05-12T16:10:29.056Z,32.83
2023-05-12T16:11:29.060Z,32.86
2023-05-12T16:12:29.021Z,32.83
2023-05-12T16:13:29.040Z,32.85
2023-05-12T16:14:29.028Z,32.84
2023-05-12T16:15:29.006Z,32.84
2023-05-12T16:16:29.036Z,32.85
2023-05-12T16:17:28.999Z,32.89
2023-05-12T16:18:29.033Z,32.88
2023-05-12T16:19:28.975Z,32.88
2023-05-12T16:20:29.003Z,32.88
2023-05-12T16:21:29.002Z,32.88
2023-05-12T16:22:29.006Z,32.91
2023-05-12T16:23:28.952Z,32.90
2023-05-12T16:24:28.969Z,32.90
2023-05-12T16:25:28.944Z,32.91
2023-05-12T16:26:28.935Z,32.91
2023-05-12T16:27:28.929Z,32.94
2023-05-12T16:28:28.930Z,32.92
2023-05-12T16:29:29.026Z,32.93
2023-05-12T16:30:28.948Z,32.94
2023-05-12T16:31:28.976Z,32.94
2023-05-12T16:32:29.017Z,32.94
2023-05-12T16:33:28.901Z,32.97
2023-05-12T16:34:28.923Z,32.96
2023-05-12T16:35:28.901Z,32.96
2023-05-12T16:36:28.879Z,32.97
2023-05-12T16:37:28.904Z,32.95
2023-05-12T16:38:28.832Z,32.99
2023-05-12T16:39:28.835Z,32.99
2023-05-12T16:40:28.849Z,33.00
2023-05-12T16:41:28.909Z,33.01
2023-05-12T16:42:28.809Z,32.98
2023-05-12T16:43:28.838Z,33.01
2023-05-12T16:44:28.816Z,33.03
2023-05-12T16:45:28.811Z,32.99
2023-05-12T16:46:28.898Z,33.01
2023-05-12T16:47:28.840Z,33.05
2023-05-12T16:48:28.840Z,33.02
2023-05-12T16:49:28.934Z,33.06
2023-05-12T16:50:28.874Z,33.05
2023-05-12T16:51:28.869Z,33.03
2023-05-12T16:52:28.932Z,33.05
2023-05-12T16:53:28.899Z,33.04
2023-05-12T16:54:28.889Z,33.06
2023-05-12T16:55:28.937Z,33.07
2023-05-12T16:56:28.923Z,33.06
2023-05-12T16:57:28.944Z,33.06
2023-05-12T16:58:28.940Z,33.08
2023-05-12T16:59:28.944Z,33.07
2023-05-12T17:00:28.962Z,33.09
